sensor_id;sensor_type;location;lat;lon;timestamp;pressure;altitude;pressure_sealevel;temperature;humidity
70921;BME280;58572;48.110;19.838;2023-03-31T00:01:28;97325.34;;;9.19;63.98
70921;BME280;58572;48.110;19.838;2023-03-31T00:03:55;97308.25;;;8.94;64.39
70921;BME280;58572;48.110;19.838;2023-03-31T00:06:30;97311.81;;;8.90;66.22
70921;BME280;58572;48.110;19.838;2023-03-31T00:08:57;97308.25;;;9.18;63.54
70921;BME280;58572;48.110;19.838;2023-03-31T00:11:27;97303.00;;;9.27;63.12
70921;BME280;58572;48.110;19.838;2023-03-31T00:13:56;97306.53;;;9.27;63.65
70921;BME280;58572;48.110;19.838;2023-03-31T00:16:23;97304.91;;;9.26;63.16
70921;BME280;58572;48.110;19.838;2023-03-31T00:18:51;97289.75;;;8.73;67.15
70921;BME280;58572;48.110;19.838;2023-03-31T00:21:19;97291.31;;;9.08;63.85
70921;BME280;58572;48.110;19.838;2023-03-31T00:23:59;97283.69;;;9.10;63.77
70921;BME280;58572;48.110;19.838;2023-03-31T00:26:27;97286.63;;;8.89;64.55
70921;BME280;58572;48.110;19.838;2023-03-31T00:28:56;97214.28;;;8.61;64.98
70921;BME280;58572;48.110;19.838;2023-03-31T00:31:23;97268.00;;;9.07;64.42
70921;BME280;58572;48.110;19.838;2023-03-31T00:33:51;97273.25;;;8.98;64.45
70921;BME280;58572;48.110;19.838;2023-03-31T00:36:19;97281.50;;;8.59;69.72
70921;BME280;58572;48.110;19.838;2023-03-31T00:38:52;97281.78;;;8.18;69.73
70921;BME280;58572;48.110;19.838;2023-03-31T00:41:19;97273.75;;;8.76;65.74
70921;BME280;58572;48.110;19.838;2023-03-31T00:44:05;97267.09;;;8.35;67.16
70921;BME280;58572;48.110;19.838;2023-03-31T00:46:36;97266.31;;;8.87;65.13
70921;BME280;58572;48.110;19.838;2023-03-31T00:49:04;97263.72;;;9.01;63.86
70921;BME280;58572;48.110;19.838;2023-03-31T00:51:32;97241.63;;;8.88;64.36
70921;BME280;58572;48.110;19.838;2023-03-31T00:54:03;97214.81;;;8.87;64.58
70921;BME280;58572;48.110;19.838;2023-03-31T00:56:35;97238.22;;;9.02;64.02
70921;BME280;58572;48.110;19.838;2023-03-31T00:59:07;97245.16;;;8.89;64.57
70921;BME280;58572;48.110;19.838;2023-03-31T01:01:35;97238.34;;;8.68;65.42
70921;BME280;58572;48.110;19.838;2023-03-31T01:04:04;97230.13;;;8.49;65.86
70921;BME280;58572;48.110;19.838;2023-03-31T01:06:37;97223.81;;;8.82;65.07
70921;BME280;58572;48.110;19.838;2023-03-31T01:09:11;97224.84;;;8.86;64.10
70921;BME280;58572;48.110;19.838;2023-03-31T01:11:42;97200.78;;;7.93;69.16
70921;BME280;58572;48.110;19.838;2023-03-31T01:14:12;97219.88;;;8.46;65.66
70921;BME280;58572;48.110;19.838;2023-03-31T01:16:39;97223.75;;;8.35;66.91
70921;BME280;58572;48.110;19.838;2023-03-31T01:19:12;97231.47;;;8.51;65.53
70921;BME280;58572;48.110;19.838;2023-03-31T01:25:08;97235.38;;;8.30;66.51
70921;BME280;58572;48.110;19.838;2023-03-31T01:27:52;97235.09;;;8.31;66.83
70921;BME280;58572;48.110;19.838;2023-03-31T01:30:44;97225.06;;;8.66;65.23
70921;BME280;58572;48.110;19.838;2023-03-31T01:33:38;97227.03;;;8.84;64.47
70921;BME280;58572;48.110;19.838;2023-03-31T01:42:14;97171.00;;;8.56;63.57
70921;BME280;58572;48.110;19.838;2023-03-31T01:44:45;97235.75;;;8.81;64.17
70921;BME280;58572;48.110;19.838;2023-03-31T01:47:19;97223.56;;;8.79;64.32
70921;BME280;58572;48.110;19.838;2023-03-31T01:49:56;97234.41;;;8.79;65.60
70921;BME280;58572;48.110;19.838;2023-03-31T01:52:27;97226.88;;;9.00;63.58
70921;BME280;58572;48.110;19.838;2023-03-31T01:55:01;97232.81;;;9.02;64.34
70921;BME280;58572;48.110;19.838;2023-03-31T01:57:33;97224.03;;;8.86;64.51
70921;BME280;58572;48.110;19.838;2023-03-31T02:00:04;97214.13;;;8.76;64.59
70921;BME280;58572;48.110;19.838;2023-03-31T02:02:37;97223.13;;;8.72;65.39
70921;BME280;58572;48.110;19.838;2023-03-31T02:05:09;97208.34;;;8.83;64.83
70921;BME280;58572;48.110;19.838;2023-03-31T02:07:40;97214.94;;;8.77;65.59
70921;BME280;58572;48.110;19.838;2023-03-31T02:10:11;97217.22;;;8.41;68.81
70921;BME280;58572;48.110;19.838;2023-03-31T02:12:42;97198.56;;;8.63;66.40
70921;BME280;58572;48.110;19.838;2023-03-31T02:15:13;97206.91;;;8.67;66.84
70921;BME280;58572;48.110;19.838;2023-03-31T02:17:45;97175.72;;;8.11;68.41
70921;BME280;58572;48.110;19.838;2023-03-31T02:20:17;97207.66;;;8.72;65.97
70921;BME280;58572;48.110;19.838;2023-03-31T02:22:48;97216.06;;;8.47;67.08
70921;BME280;58572;48.110;19.838;2023-03-31T02:25:19;97186.94;;;8.34;66.93
70921;BME280;58572;48.110;19.838;2023-03-31T02:27:52;97214.88;;;8.58;66.28
70921;BME280;58572;48.110;19.838;2023-03-31T02:30:21;97210.91;;;8.74;65.22
70921;BME280;58572;48.110;19.838;2023-03-31T02:32:48;97212.13;;;7.95;71.59
70921;BME280;58572;48.110;19.838;2023-03-31T02:35:17;97206.50;;;8.54;66.63
70921;BME280;58572;48.110;19.838;2023-03-31T02:37:45;97197.50;;;8.59;66.16
70921;BME280;58572;48.110;19.838;2023-03-31T02:40:16;97170.31;;;8.11;67.38
70921;BME280;58572;48.110;19.838;2023-03-31T02:42:44;97204.75;;;8.40;66.85
70921;BME280;58572;48.110;19.838;2023-03-31T02:45:40;97197.78;;;8.34;69.69
70921;BME280;58572;48.110;19.838;2023-03-31T02:48:10;97192.56;;;8.66;68.12
70921;BME280;58572;48.110;19.838;2023-03-31T02:50:58;97192.78;;;8.70;66.31
70921;BME280;58572;48.110;19.838;2023-03-31T02:53:33;97195.28;;;8.66;67.28
70921;BME280;58572;48.110;19.838;2023-03-31T02:56:17;97202.00;;;8.69;66.58
70921;BME280;58572;48.110;19.838;2023-03-31T02:58:59;97203.75;;;8.59;67.14
70921;BME280;58572;48.110;19.838;2023-03-31T03:01:49;97200.47;;;8.34;70.74
70921;BME280;58572;48.110;19.838;2023-03-31T03:04:35;97203.13;;;8.39;68.42
70921;BME280;58572;48.110;19.838;2023-03-31T03:07:07;97204.97;;;8.09;74.87
70921;BME280;58572;48.110;19.838;2023-03-31T03:09:46;97155.94;;;7.82;69.65
70921;BME280;58572;48.110;19.838;2023-03-31T03:12:23;97209.06;;;8.07;75.74
70921;BME280;58572;48.110;19.838;2023-03-31T03:14:54;97209.09;;;8.01;71.67
70921;BME280;58572;48.110;19.838;2023-03-31T03:17:27;97197.19;;;8.31;71.58
70921;BME280;58572;48.110;19.838;2023-03-31T03:19:58;97204.78;;;8.29;75.08
70921;BME280;58572;48.110;19.838;2023-03-31T03:22:26;97209.97;;;8.60;69.87
70921;BME280;58572;48.110;19.838;2023-03-31T03:24:53;97159.38;;;8.21;69.23
70921;BME280;58572;48.110;19.838;2023-03-31T03:27:20;97212.97;;;8.24;70.36
70921;BME280;58572;48.110;19.838;2023-03-31T03:29:48;97205.09;;;8.33;71.19
70921;BME280;58572;48.110;19.838;2023-03-31T03:32:15;97206.22;;;9.04;68.33
70921;BME280;58572;48.110;19.838;2023-03-31T03:34:44;97209.25;;;8.49;70.14
70921;BME280;58572;48.110;19.838;2023-03-31T03:37:11;97194.38;;;8.47;72.60
70921;BME280;58572;48.110;19.838;2023-03-31T03:39:38;97196.53;;;7.82;80.23
70921;BME280;58572;48.110;19.838;2023-03-31T03:42:05;97196.56;;;8.45;70.77
70921;BME280;58572;48.110;19.838;2023-03-31T03:44:32;97198.50;;;8.68;69.29
70921;BME280;58572;48.110;19.838;2023-03-31T03:46:59;97192.66;;;9.04;69.12
70921;BME280;58572;48.110;19.838;2023-03-31T03:49:27;97198.31;;;9.07;66.38
70921;BME280;58572;48.110;19.838;2023-03-31T03:51:55;97197.03;;;9.00;67.64
70921;BME280;58572;48.110;19.838;2023-03-31T03:54:22;97197.75;;;8.86;68.40
70921;BME280;58572;48.110;19.838;2023-03-31T03:56:50;97205.25;;;8.71;68.75
70921;BME280;58572;48.110;19.838;2023-03-31T03:59:17;97195.44;;;8.75;73.24
70921;BME280;58572;48.110;19.838;2023-03-31T04:01:44;97201.56;;;8.27;72.94
70921;BME280;58572;48.110;19.838;2023-03-31T04:04:11;97191.28;;;8.82;68.49
70921;BME280;58572;48.110;19.838;2023-03-31T04:06:38;97204.78;;;8.87;68.24
70921;BME280;58572;48.110;19.838;2023-03-31T04:09:06;97201.78;;;8.65;70.73
70921;BME280;58572;48.110;19.838;2023-03-31T04:11:34;97196.38;;;8.89;70.64
70921;BME280;58572;48.110;19.838;2023-03-31T04:14:02;97194.06;;;8.77;70.17
70921;BME280;58572;48.110;19.838;2023-03-31T04:16:29;97188.81;;;8.86;68.95
70921;BME280;58572;48.110;19.838;2023-03-31T04:18:59;97184.00;;;9.02;68.17
70921;BME280;58572;48.110;19.838;2023-03-31T04:21:28;97178.03;;;8.57;76.28
70921;BME280;58572;48.110;19.838;2023-03-31T04:24:00;97166.56;;;9.08;69.13
70921;BME280;58572;48.110;19.838;2023-03-31T04:26:32;97147.56;;;8.89;67.18
70921;BME280;58572;48.110;19.838;2023-03-31T04:29:07;97185.41;;;8.51;71.41
70921;BME280;58572;48.110;19.838;2023-03-31T04:31:34;97172.72;;;8.94;68.53
70921;BME280;58572;48.110;19.838;2023-03-31T04:34:03;97186.84;;;8.91;71.74
70921;BME280;58572;48.110;19.838;2023-03-31T04:36:31;97184.66;;;8.70;70.47
70921;BME280;58572;48.110;19.838;2023-03-31T04:38:58;97185.28;;;8.85;70.88
70921;BME280;58572;48.110;19.838;2023-03-31T04:41:26;97185.63;;;9.03;70.50
70921;BME280;58572;48.110;19.838;2023-03-31T04:43:55;97188.16;;;8.94;68.88
70921;BME280;58572;48.110;19.838;2023-03-31T04:46:22;97191.75;;;8.89;69.32
70921;BME280;58572;48.110;19.838;2023-03-31T04:48:49;97196.13;;;8.85;69.27
70921;BME280;58572;48.110;19.838;2023-03-31T04:51:16;97171.13;;;9.12;67.37
70921;BME280;58572;48.110;19.838;2023-03-31T04:53:44;97198.19;;;9.36;66.14
70921;BME280;58572;48.110;19.838;2023-03-31T04:56:11;97203.94;;;9.11;67.70
70921;BME280;58572;48.110;19.838;2023-03-31T04:58:39;97185.84;;;9.06;67.88
70921;BME280;58572;48.110;19.838;2023-03-31T05:01:07;97210.09;;;8.98;68.90
70921;BME280;58572;48.110;19.838;2023-03-31T05:03:34;97213.31;;;8.76;73.45
70921;BME280;58572;48.110;19.838;2023-03-31T05:06:01;97210.53;;;8.57;73.77
70921;BME280;58572;48.110;19.838;2023-03-31T05:08:28;97212.69;;;9.26;69.40
70921;BME280;58572;48.110;19.838;2023-03-31T05:10:55;97208.38;;;9.25;68.30
70921;BME280;58572;48.110;19.838;2023-03-31T05:13:22;97201.63;;;9.23;67.96
70921;BME280;58572;48.110;19.838;2023-03-31T05:15:49;97189.13;;;9.03;68.22
70921;BME280;58572;48.110;19.838;2023-03-31T05:18:18;97203.94;;;9.11;69.77
70921;BME280;58572;48.110;19.838;2023-03-31T05:20:46;97132.06;;;8.94;67.73
70921;BME280;58572;48.110;19.838;2023-03-31T05:23:13;97210.41;;;9.39;67.86
70921;BME280;58572;48.110;19.838;2023-03-31T05:25:40;97206.53;;;9.21;67.77
70921;BME280;58572;48.110;19.838;2023-03-31T05:28:08;97209.69;;;9.28;71.66
70921;BME280;58572;48.110;19.838;2023-03-31T05:30:35;97205.25;;;9.37;68.02
70921;BME280;58572;48.110;19.838;2023-03-31T05:33:02;97216.16;;;9.32;68.33
70921;BME280;58572;48.110;19.838;2023-03-31T05:35:30;97153.25;;;9.11;67.53
70921;BME280;58572;48.110;19.838;2023-03-31T05:37:57;97207.19;;;9.13;69.40
70921;BME280;58572;48.110;19.838;2023-03-31T05:40:24;97208.47;;;8.96;74.90
70921;BME280;58572;48.110;19.838;2023-03-31T05:42:51;97207.50;;;9.30;74.59
70921;BME280;58572;48.110;19.838;2023-03-31T05:45:18;97210.31;;;8.77;74.70
70921;BME280;58572;48.110;19.838;2023-03-31T05:47:46;97205.16;;;9.23;73.33
70921;BME280;58572;48.110;19.838;2023-03-31T05:50:13;97203.09;;;9.34;69.78
70921;BME280;58572;48.110;19.838;2023-03-31T05:52:42;97204.91;;;9.63;68.47
70921;BME280;58572;48.110;19.838;2023-03-31T05:55:09;97213.97;;;9.34;69.64
70921;BME280;58572;48.110;19.838;2023-03-31T05:57:37;97204.03;;;9.48;69.06
70921;BME280;58572;48.110;19.838;2023-03-31T06:00:05;97208.34;;;9.49;71.27
70921;BME280;58572;48.110;19.838;2023-03-31T06:02:35;97201.69;;;9.60;69.08
70921;BME280;58572;48.110;19.838;2023-03-31T06:05:03;97169.38;;;9.78;67.22
70921;BME280;58572;48.110;19.838;2023-03-31T06:07:30;97202.13;;;9.68;69.04
70921;BME280;58572;48.110;19.838;2023-03-31T06:09:59;97200.94;;;9.74;69.68
70921;BME280;58572;48.110;19.838;2023-03-31T06:12:26;97207.38;;;9.78;68.72
70921;BME280;58572;48.110;19.838;2023-03-31T06:14:53;97210.72;;;9.32;75.14
70921;BME280;58572;48.110;19.838;2023-03-31T06:17:20;97203.41;;;9.89;71.82
70921;BME280;58572;48.110;19.838;2023-03-31T06:19:47;97200.50;;;9.67;70.77
70921;BME280;58572;48.110;19.838;2023-03-31T06:22:14;97192.94;;;10.15;69.42
70921;BME280;58572;48.110;19.838;2023-03-31T06:24:41;97195.41;;;9.98;74.16
70921;BME280;58572;48.110;19.838;2023-03-31T06:27:09;97205.72;;;9.44;75.96
70921;BME280;58572;48.110;19.838;2023-03-31T06:29:36;97201.59;;;9.47;73.13
70921;BME280;58572;48.110;19.838;2023-03-31T06:32:03;97203.16;;;10.04;71.64
70921;BME280;58572;48.110;19.838;2023-03-31T06:34:30;97199.94;;;10.21;70.15
70921;BME280;58572;48.110;19.838;2023-03-31T06:36:57;97205.78;;;10.28;70.54
70921;BME280;58572;48.110;19.838;2023-03-31T06:39:24;97191.38;;;10.46;71.88
70921;BME280;58572;48.110;19.838;2023-03-31T06:41:51;97189.97;;;10.49;69.61
70921;BME280;58572;48.110;19.838;2023-03-31T06:44:20;97171.53;;;9.01;75.94
70921;BME280;58572;48.110;19.838;2023-03-31T06:46:47;97194.75;;;8.88;80.25
70921;BME280;58572;48.110;19.838;2023-03-31T06:49:17;97191.78;;;10.02;73.28
70921;BME280;58572;48.110;19.838;2023-03-31T06:51:44;97189.50;;;10.28;73.77
70921;BME280;58572;48.110;19.838;2023-03-31T06:54:11;97199.16;;;10.80;73.41
70921;BME280;58572;48.110;19.838;2023-03-31T06:56:38;97198.63;;;10.51;70.64
70921;BME280;58572;48.110;19.838;2023-03-31T06:59:04;97200.34;;;10.61;74.39
70921;BME280;58572;48.110;19.838;2023-03-31T07:01:33;97197.44;;;11.12;72.38
70921;BME280;58572;48.110;19.838;2023-03-31T07:04:03;97197.84;;;10.64;70.81
70921;BME280;58572;48.110;19.838;2023-03-31T07:06:30;97195.06;;;10.18;72.87
70921;BME280;58572;48.110;19.838;2023-03-31T07:08:57;97194.91;;;10.74;73.74
70921;BME280;58572;48.110;19.838;2023-03-31T07:11:24;97190.50;;;10.92;72.23
70921;BME280;58572;48.110;19.838;2023-03-31T07:13:51;97197.31;;;11.17;69.18
70921;BME280;58572;48.110;19.838;2023-03-31T07:16:18;97196.59;;;11.52;69.54
70921;BME280;58572;48.110;19.838;2023-03-31T07:18:47;97198.22;;;11.26;68.91
70921;BME280;58572;48.110;19.838;2023-03-31T07:21:15;97204.28;;;11.23;68.72
70921;BME280;58572;48.110;19.838;2023-03-31T07:23:42;97193.81;;;11.16;71.87
70921;BME280;58572;48.110;19.838;2023-03-31T07:26:09;97123.13;;;10.89;70.60
70921;BME280;58572;48.110;19.838;2023-03-31T07:28:36;97182.09;;;11.30;67.88
70921;BME280;58572;48.110;19.838;2023-03-31T07:31:09;97111.53;;;10.83;69.63
70921;BME280;58572;48.110;19.838;2023-03-31T07:33:37;97184.25;;;11.69;68.54
70921;BME280;58572;48.110;19.838;2023-03-31T07:36:06;97181.56;;;11.41;67.89
70921;BME280;58572;48.110;19.838;2023-03-31T07:38:33;97174.81;;;11.52;68.70
70921;BME280;58572;48.110;19.838;2023-03-31T07:41:00;97138.72;;;10.97;69.26
70921;BME280;58572;48.110;19.838;2023-03-31T07:43:27;97192.59;;;10.68;72.86
70921;BME280;58572;48.110;19.838;2023-03-31T07:45:55;97188.13;;;11.54;69.68
70921;BME280;58572;48.110;19.838;2023-03-31T07:48:22;97177.22;;;12.12;68.17
70921;BME280;58572;48.110;19.838;2023-03-31T07:50:48;97182.91;;;11.30;68.96
70921;BME280;58572;48.110;19.838;2023-03-31T07:53:17;97183.63;;;11.08;71.15
70921;BME280;58572;48.110;19.838;2023-03-31T07:55:46;97174.88;;;11.97;67.88
70921;BME280;58572;48.110;19.838;2023-03-31T07:58:13;97179.19;;;12.21;68.38
70921;BME280;58572;48.110;19.838;2023-03-31T08:00:40;97178.53;;;11.93;67.36
70921;BME280;58572;48.110;19.838;2023-03-31T08:03:07;97167.94;;;12.13;67.57
70921;BME280;58572;48.110;19.838;2023-03-31T08:05:34;97165.28;;;12.22;67.94
70921;BME280;58572;48.110;19.838;2023-03-31T08:08:01;97167.41;;;12.34;66.35
70921;BME280;58572;48.110;19.838;2023-03-31T08:10:30;97151.16;;;12.20;66.45
70921;BME280;58572;48.110;19.838;2023-03-31T08:12:57;97156.81;;;13.03;67.58
70921;BME280;58572;48.110;19.838;2023-03-31T08:15:24;97151.94;;;13.22;64.94
70921;BME280;58572;48.110;19.838;2023-03-31T08:17:51;97156.38;;;13.09;65.11
70921;BME280;58572;48.110;19.838;2023-03-31T08:20:18;97151.72;;;13.10;65.62
70921;BME280;58572;48.110;19.838;2023-03-31T08:22:45;97152.06;;;12.38;66.95
70921;BME280;58572;48.110;19.838;2023-03-31T08:25:12;97141.16;;;13.17;64.03
70921;BME280;58572;48.110;19.838;2023-03-31T08:27:40;97139.16;;;13.66;62.99
70921;BME280;58572;48.110;19.838;2023-03-31T08:30:09;97136.19;;;13.28;63.75
70921;BME280;58572;48.110;19.838;2023-03-31T08:32:37;97122.25;;;13.47;64.64
70921;BME280;58572;48.110;19.838;2023-03-31T08:35:05;97071.47;;;12.14;64.92
70921;BME280;58572;48.110;19.838;2023-03-31T08:37:32;97123.03;;;13.21;65.10
70921;BME280;58572;48.110;19.838;2023-03-31T08:40:00;97115.22;;;14.91;61.94
70921;BME280;58572;48.110;19.838;2023-03-31T08:42:35;97114.72;;;14.97;60.77
70921;BME280;58572;48.110;19.838;2023-03-31T08:45:06;97114.94;;;13.07;64.76
70921;BME280;58572;48.110;19.838;2023-03-31T08:47:39;97106.13;;;14.23;61.83
70921;BME280;58572;48.110;19.838;2023-03-31T08:50:12;97103.59;;;14.00;61.62
70921;BME280;58572;48.110;19.838;2023-03-31T08:52:43;97088.28;;;15.73;58.47
70921;BME280;58572;48.110;19.838;2023-03-31T08:55:15;97086.03;;;15.24;58.37
70921;BME280;58572;48.110;19.838;2023-03-31T08:57:50;97062.34;;;16.03;57.79
70921;BME280;58572;48.110;19.838;2023-03-31T09:00:21;97080.31;;;15.59;58.22
70921;BME280;58572;48.110;19.838;2023-03-31T09:02:51;97086.63;;;14.80;60.20
70921;BME280;58572;48.110;19.838;2023-03-31T09:05:43;97070.31;;;16.53;55.51
70921;BME280;58572;48.110;19.838;2023-03-31T09:08:17;97075.22;;;15.90;56.11
70921;BME280;58572;48.110;19.838;2023-03-31T09:10:52;97064.75;;;16.05;56.73
70921;BME280;58572;48.110;19.838;2023-03-31T09:13:25;97067.84;;;14.99;58.23
70921;BME280;58572;48.110;19.838;2023-03-31T09:16:02;97048.88;;;16.68;55.90
70921;BME280;58572;48.110;19.838;2023-03-31T09:18:33;97047.44;;;15.59;57.48
70921;BME280;58572;48.110;19.838;2023-03-31T09:21:06;97044.16;;;15.24;58.63
70921;BME280;58572;48.110;19.838;2023-03-31T09:23:41;97029.44;;;16.73;55.44
70921;BME280;58572;48.110;19.838;2023-03-31T09:26:15;97020.53;;;17.56;53.63
70921;BME280;58572;48.110;19.838;2023-03-31T09:28:48;97016.03;;;18.67;51.30
70921;BME280;58572;48.110;19.838;2023-03-31T09:31:19;97015.22;;;18.50;50.35
70921;BME280;58572;48.110;19.838;2023-03-31T09:33:50;96906.66;;;18.32;50.01
70921;BME280;58572;48.110;19.838;2023-03-31T09:36:20;97004.22;;;19.36;47.71
70921;BME280;58572;48.110;19.838;2023-03-31T09:38:48;97003.28;;;19.29;49.75
70921;BME280;58572;48.110;19.838;2023-03-31T09:41:16;96991.44;;;20.05;49.22
70921;BME280;58572;48.110;19.838;2023-03-31T09:43:46;96998.66;;;19.52;48.14
70921;BME280;58572;48.110;19.838;2023-03-31T09:46:17;96986.91;;;21.15;45.46
70921;BME280;58572;48.110;19.838;2023-03-31T09:48:53;97006.09;;;17.31;48.23
70921;BME280;58572;48.110;19.838;2023-03-31T09:51:25;96992.41;;;18.50;49.66
70921;BME280;58572;48.110;19.838;2023-03-31T09:53:55;96984.50;;;20.15;44.51
70921;BME280;58572;48.110;19.838;2023-03-31T09:56:32;96973.63;;;22.28;42.88
70921;BME280;58572;48.110;19.838;2023-03-31T09:59:01;96967.78;;;22.00;43.47
70921;BME280;58572;48.110;19.838;2023-03-31T10:01:29;96961.59;;;21.77;43.70
70921;BME280;58572;48.110;19.838;2023-03-31T10:03:57;96972.66;;;19.72;47.22
70921;BME280;58572;48.110;19.838;2023-03-31T10:06:24;96974.84;;;19.44;45.91
70921;BME280;58572;48.110;19.838;2023-03-31T10:08:55;96973.84;;;20.14;45.69
70921;BME280;58572;48.110;19.838;2023-03-31T10:11:24;96970.13;;;19.44;44.61
70921;BME280;58572;48.110;19.838;2023-03-31T10:13:58;96960.69;;;21.32;42.29
70921;BME280;58572;48.110;19.838;2023-03-31T10:16:30;96915.22;;;17.96;46.25
70921;BME280;58572;48.110;19.838;2023-03-31T10:19:13;96962.50;;;20.19;43.29
70921;BME280;58572;48.110;19.838;2023-03-31T10:21:45;96951.09;;;21.89;42.02
70921;BME280;58572;48.110;19.838;2023-03-31T10:24:17;96940.25;;;21.77;41.61
70921;BME280;58572;48.110;19.838;2023-03-31T10:26:47;96967.38;;;19.44;46.15
70921;BME280;58572;48.110;19.838;2023-03-31T10:29:19;96913.69;;;18.80;46.76
70921;BME280;58572;48.110;19.838;2023-03-31T10:31:50;96945.69;;;20.50;45.24
70921;BME280;58572;48.110;19.838;2023-03-31T10:34:20;96932.88;;;21.51;42.47
70921;BME280;58572;48.110;19.838;2023-03-31T10:36:49;96925.00;;;22.35;39.86
70921;BME280;58572;48.110;19.838;2023-03-31T10:39:18;96927.19;;;22.11;41.86
70921;BME280;58572;48.110;19.838;2023-03-31T10:41:49;96921.31;;;21.12;39.93
70921;BME280;58572;48.110;19.838;2023-03-31T10:44:33;96927.78;;;20.40;43.42
70921;BME280;58572;48.110;19.838;2023-03-31T10:47:04;96921.53;;;19.98;42.10
70921;BME280;58572;48.110;19.838;2023-03-31T10:49:37;96922.56;;;19.90;43.90
70921;BME280;58572;48.110;19.838;2023-03-31T10:52:14;96915.31;;;20.50;43.04
70921;BME280;58572;48.110;19.838;2023-03-31T10:54:49;96911.81;;;19.42;44.34
70921;BME280;58572;48.110;19.838;2023-03-31T10:57:17;96901.69;;;19.89;44.68
70921;BME280;58572;48.110;19.838;2023-03-31T10:59:57;96903.50;;;20.53;42.42
70921;BME280;58572;48.110;19.838;2023-03-31T11:05:35;96907.72;;;21.63;40.74
70921;BME280;58572;48.110;19.838;2023-03-31T11:08:25;96917.91;;;20.17;42.86
70921;BME280;58572;48.110;19.838;2023-03-31T11:11:08;96903.97;;;20.32;41.79
70921;BME280;58572;48.110;19.838;2023-03-31T11:13:41;96901.44;;;20.73;43.04
70921;BME280;58572;48.110;19.838;2023-03-31T11:16:17;96904.00;;;20.85;41.15
70921;BME280;58572;48.110;19.838;2023-03-31T11:19:01;96907.56;;;17.73;43.65
70921;BME280;58572;48.110;19.838;2023-03-31T11:21:37;96877.97;;;19.65;42.95
70921;BME280;58572;48.110;19.838;2023-03-31T11:24:15;96897.78;;;20.16;43.58
70921;BME280;58572;48.110;19.838;2023-03-31T11:26:49;96893.22;;;19.78;43.39
70921;BME280;58572;48.110;19.838;2023-03-31T11:29:31;96890.72;;;20.98;42.64
70921;BME280;58572;48.110;19.838;2023-03-31T11:32:15;96886.00;;;19.73;43.92
70921;BME280;58572;48.110;19.838;2023-03-31T11:35:01;96882.41;;;20.15;44.31
70921;BME280;58572;48.110;19.838;2023-03-31T11:37:45;96857.44;;;21.54;40.57
70921;BME280;58572;48.110;19.838;2023-03-31T11:40:34;96858.63;;;20.60;41.86
70921;BME280;58572;48.110;19.838;2023-03-31T11:43:06;96857.16;;;21.66;39.11
70921;BME280;58572;48.110;19.838;2023-03-31T11:45:40;96856.66;;;21.57;40.38
70921;BME280;58572;48.110;19.838;2023-03-31T11:48:15;96828.16;;;22.49;39.48
70921;BME280;58572;48.110;19.838;2023-03-31T11:50:47;96864.56;;;20.09;42.99
70921;BME280;58572;48.110;19.838;2023-03-31T11:53:19;96815.19;;;19.77;42.14
70921;BME280;58572;48.110;19.838;2023-03-31T11:55:51;96853.47;;;19.18;42.28
70921;BME280;58572;48.110;19.838;2023-03-31T11:58:22;96838.97;;;19.86;42.85
70921;BME280;58572;48.110;19.838;2023-03-31T12:00:56;96839.84;;;19.05;43.76
70921;BME280;58572;48.110;19.838;2023-03-31T12:03:34;96826.47;;;19.27;43.98
70921;BME280;58572;48.110;19.838;2023-03-31T12:06:05;96789.09;;;19.06;44.52
70921;BME280;58572;48.110;19.838;2023-03-31T12:08:41;96808.25;;;18.99;43.64
70921;BME280;58572;48.110;19.838;2023-03-31T12:11:14;96811.72;;;18.96;43.52
70921;BME280;58572;48.110;19.838;2023-03-31T12:13:46;96795.09;;;20.03;42.13
70921;BME280;58572;48.110;19.838;2023-03-31T12:16:18;96782.97;;;23.14;38.60
70921;BME280;58572;48.110;19.838;2023-03-31T12:18:56;96792.34;;;21.67;38.75
70921;BME280;58572;48.110;19.838;2023-03-31T12:21:29;96738.50;;;21.54;39.70
70921;BME280;58572;48.110;19.838;2023-03-31T12:23:59;96781.38;;;20.37;41.36
70921;BME280;58572;48.110;19.838;2023-03-31T12:26:40;96777.13;;;20.73;41.00
70921;BME280;58572;48.110;19.838;2023-03-31T12:29:21;96742.09;;;17.83;43.69
70921;BME280;58572;48.110;19.838;2023-03-31T12:31:54;96777.28;;;19.97;41.59
70921;BME280;58572;48.110;19.838;2023-03-31T12:34:24;96770.69;;;20.05;43.06
70921;BME280;58572;48.110;19.838;2023-03-31T12:37:23;96764.59;;;19.93;43.02
70921;BME280;58572;48.110;19.838;2023-03-31T12:40:02;96764.91;;;20.40;42.62
70921;BME280;58572;48.110;19.838;2023-03-31T12:42:58;96763.34;;;18.76;41.33
70921;BME280;58572;48.110;19.838;2023-03-31T12:45:34;96750.47;;;19.71;41.22
70921;BME280;58572;48.110;19.838;2023-03-31T12:48:17;96753.94;;;19.00;43.55
70921;BME280;58572;48.110;19.838;2023-03-31T12:51:01;96757.94;;;19.02;43.57
70921;BME280;58572;48.110;19.838;2023-03-31T12:53:40;96750.41;;;19.45;41.45
70921;BME280;58572;48.110;19.838;2023-03-31T12:56:12;96745.91;;;20.09;41.85
70921;BME280;58572;48.110;19.838;2023-03-31T12:58:43;96753.72;;;19.77;41.12
70921;BME280;58572;48.110;19.838;2023-03-31T13:01:16;96728.78;;;20.56;40.46
70921;BME280;58572;48.110;19.838;2023-03-31T13:03:49;96708.44;;;20.38;40.93
70921;BME280;58572;48.110;19.838;2023-03-31T13:09:45;96717.78;;;21.34;40.48
70921;BME280;58572;48.110;19.838;2023-03-31T13:12:16;96715.00;;;20.26;42.89
70921;BME280;58572;48.110;19.838;2023-03-31T13:14:47;96715.59;;;20.13;41.96
70921;BME280;58572;48.110;19.838;2023-03-31T13:17:29;96702.56;;;20.39;42.06
70921;BME280;58572;48.110;19.838;2023-03-31T13:20:14;96685.84;;;21.40;40.65
70921;BME280;58572;48.110;19.838;2023-03-31T13:22:44;96648.81;;;22.14;40.67
70921;BME280;58572;48.110;19.838;2023-03-31T13:28:33;96672.34;;;20.87;39.70
70921;BME280;58572;48.110;19.838;2023-03-31T13:31:06;96666.41;;;20.52;42.50
70921;BME280;58572;48.110;19.838;2023-03-31T13:33:36;96667.00;;;20.04;41.45
70921;BME280;58572;48.110;19.838;2023-03-31T13:39:26;96658.88;;;19.59;41.44